createdAt,value
2023-04-13T00:00:54.765Z,8.43
2023-04-13T00:03:24.585Z,8.48
2023-04-13T00:05:54.920Z,8.42
2023-04-13T00:08:24.028Z,8.35
2023-04-13T00:10:56.495Z,8.40
2023-04-13T00:13:26.051Z,8.66
2023-04-13T00:15:55.917Z,8.80
2023-04-13T00:18:25.493Z,8.45
2023-04-13T00:20:54.632Z,8.30
2023-04-13T00:23:23.838Z,8.27
2023-04-13T00:25:54.501Z,8.28
2023-04-13T00:28:24.466Z,8.27
2023-04-13T00:30:53.954Z,8.16
2023-04-13T00:33:23.059Z,8.16
2023-04-13T00:35:53.278Z,8.14
2023-04-13T00:38:24.212Z,8.08
2023-04-13T00:40:56.959Z,8.14
2023-04-13T00:43:26.282Z,8.19
2023-04-13T00:45:56.069Z,8.26
2023-04-13T00:48:25.558Z,8.56
2023-04-13T00:50:54.679Z,8.15
2023-04-13T00:53:24.528Z,7.99
2023-04-13T00:55:54.072Z,8.12
2023-04-13T00:58:26.410Z,8.14
2023-04-13T01:00:55.729Z,8.14
2023-04-13T01:03:25.754Z,8.35
2023-04-13T01:06:14.450Z,8.24
2023-04-13T01:08:51.377Z,8.08
2023-04-13T01:11:31.645Z,7.98
2023-04-13T01:14:10.360Z,7.97
2023-04-13T01:16:46.399Z,7.98
2023-04-13T01:19:27.605Z,8.05
2023-04-13T01:21:57.978Z,8.10
2023-04-13T01:24:41.952Z,8.21
2023-04-13T01:27:17.812Z,8.23
2023-04-13T01:29:49.839Z,8.24
2023-04-13T01:32:19.566Z,8.32
2023-04-13T01:34:50.227Z,8.33
2023-04-13T01:37:20.792Z,8.26
2023-04-13T01:39:51.360Z,8.32
2023-04-13T01:42:26.718Z,8.22
2023-04-13T01:44:57.746Z,8.10
2023-04-13T01:47:27.156Z,8.03
2023-04-13T01:50:10.308Z,7.99
2023-04-13T01:53:08.187Z,8.09
2023-04-13T01:55:45.672Z,8.15
2023-04-13T01:58:17.108Z,8.08
2023-04-13T02:00:54.541Z,7.96
2023-04-13T02:03:24.013Z,7.86
2023-04-13T02:05:53.146Z,7.78
2023-04-13T02:08:22.324Z,7.77
2023-04-13T02:10:51.334Z,7.83
2023-04-13T02:13:20.484Z,7.81
2023-04-13T02:15:49.627Z,7.96
2023-04-13T02:18:20.148Z,7.96
2023-04-13T02:20:59.272Z,7.93
2023-04-13T02:23:29.803Z,7.97
2023-04-13T02:25:58.984Z,7.92
2023-04-13T02:28:29.796Z,7.84
2023-04-13T02:31:00.267Z,7.91
2023-04-13T02:33:31.731Z,7.91
2023-04-13T02:36:04.029Z,7.96
2023-04-13T02:38:38.415Z,7.82
2023-04-13T02:41:13.782Z,7.79
2023-04-13T02:43:43.664Z,7.70
2023-04-13T02:46:13.392Z,7.71
2023-04-13T02:48:45.282Z,7.71
2023-04-13T02:51:14.429Z,7.78
2023-04-13T02:53:45.552Z,7.82
2023-04-13T02:56:16.064Z,7.76
2023-04-13T02:58:46.006Z,7.78
2023-04-13T03:01:19.279Z,7.87
2023-04-13T03:03:49.766Z,7.76
2023-04-13T03:06:19.431Z,7.75
2023-04-13T03:08:52.496Z,7.70
2023-04-13T03:11:26.230Z,7.66
2023-04-13T03:14:33.888Z,7.59
2023-04-13T03:17:08.308Z,7.65
2023-04-13T03:19:42.846Z,7.80
2023-04-13T03:22:13.095Z,7.78
2023-04-13T03:24:47.479Z,7.71
2023-04-13T03:27:24.564Z,7.63
2023-04-13T03:29:56.681Z,7.62
2023-04-13T03:32:25.917Z,7.77
2023-04-13T03:35:02.329Z,7.75
2023-04-13T03:37:34.854Z,7.76
2023-04-13T03:40:13.807Z,7.83
2023-04-13T03:42:50.710Z,7.89
2023-04-13T03:45:20.395Z,7.73
2023-04-13T03:47:50.012Z,7.64
2023-04-13T03:50:24.675Z,7.54
2023-04-13T03:52:55.044Z,7.53
2023-04-13T03:55:25.410Z,7.56
2023-04-13T03:57:59.741Z,7.55
2023-04-13T04:00:31.619Z,7.67
2023-04-13T04:03:11.200Z,7.66
2023-04-13T04:06:00.596Z,7.83
2023-04-13T04:08:31.716Z,7.76
2023-04-13T04:11:05.915Z,7.85
2023-04-13T04:13:36.419Z,7.75
2023-04-13T04:16:11.797Z,7.85
2023-04-13T04:18:46.712Z,7.75
2023-04-13T04:21:21.878Z,7.81
2023-04-13T04:23:52.333Z,7.83
2023-04-13T04:26:25.758Z,7.75
2023-04-13T04:29:03.077Z,7.73
2023-04-13T04:31:37.543Z,7.74
2023-04-13T04:34:13.296Z,7.59
2023-04-13T04:36:50.443Z,7.67
2023-04-13T04:39:22.789Z,7.78
2023-04-13T04:42:08.432Z,7.71
2023-04-13T04:44:38.166Z,7.93
2023-04-13T04:47:10.039Z,7.98
2023-04-13T04:49:58.105Z,7.89
2023-04-13T04:52:29.765Z,7.87
2023-04-13T04:54:59.611Z,7.95
2023-04-13T04:57:30.461Z,7.91
2023-04-13T05:00:00.069Z,8.07
2023-04-13T05:02:30.854Z,8.05
2023-04-13T05:05:00.370Z,7.94
2023-04-13T05:07:31.146Z,7.88
2023-04-13T05:10:01.008Z,7.75
2023-04-13T05:12:30.064Z,7.71
2023-04-13T05:14:59.756Z,7.77
2023-04-13T05:17:28.939Z,7.78
2023-04-13T05:19:58.200Z,7.82
2023-04-13T05:22:41.652Z,7.86
2023-04-13T05:25:11.908Z,7.97
2023-04-13T05:27:41.361Z,7.98
2023-04-13T05:30:11.064Z,7.97
2023-04-13T05:32:43.672Z,7.97
2023-04-13T05:35:13.233Z,7.94
2023-04-13T05:37:46.795Z,8.00
2023-04-13T05:40:21.102Z,8.01
2023-04-13T05:42:50.728Z,8.00
2023-04-13T05:45:26.318Z,7.99
2023-04-13T05:48:06.593Z,8.02
2023-04-13T05:50:35.726Z,8.07
2023-04-13T05:53:07.790Z,8.15
2023-04-13T05:55:48.303Z,8.16
2023-04-13T05:58:19.207Z,8.18
2023-04-13T06:00:52.009Z,8.31
2023-04-13T06:03:30.068Z,8.40
2023-04-13T06:06:00.406Z,8.50
2023-04-13T06:08:32.813Z,8.40
2023-04-13T06:11:03.168Z,8.50
2023-04-13T06:13:32.851Z,8.37
2023-04-13T06:16:02.208Z,8.34
2023-04-13T06:18:31.424Z,8.19
2023-04-13T06:21:00.459Z,8.15
2023-04-13T06:23:31.180Z,8.18
2023-04-13T06:26:05.823Z,8.13
2023-04-13T06:28:53.307Z,8.12
2023-04-13T06:31:23.397Z,8.11
2023-04-13T06:33:53.832Z,8.15
2023-04-13T06:36:28.092Z,8.14
2023-04-13T06:39:00.447Z,8.14
2023-04-13T06:41:31.130Z,8.18
2023-04-13T06:44:15.655Z,8.17
2023-04-13T06:46:53.626Z,8.16
2023-04-13T06:49:25.362Z,8.23
2023-04-13T06:51:54.401Z,8.26
2023-04-13T06:54:24.795Z,8.28
2023-04-13T06:57:02.213Z,8.31
2023-04-13T06:59:32.098Z,8.34
2023-04-13T07:02:01.287Z,8.37
2023-04-13T07:04:33.243Z,8.40
2023-04-13T07:07:03.899Z,8.48
2023-04-13T07:09:35.490Z,8.44
2023-04-13T07:12:08.360Z,8.71
2023-04-13T07:14:42.151Z,8.68
2023-04-13T07:17:14.514Z,8.66
2023-04-13T07:19:50.043Z,8.63
2023-04-13T07:22:20.040Z,8.68
2023-04-13T07:24:52.564Z,8.82
2023-04-13T07:27:22.866Z,8.87
2023-04-13T07:29:53.024Z,8.81
2023-04-13T07:32:30.750Z,8.78
2023-04-13T07:35:02.545Z,8.64
2023-04-13T07:37:35.357Z,8.58
2023-04-13T07:40:08.651Z,8.61
2023-04-13T07:42:38.114Z,8.71
2023-04-13T07:45:10.751Z,8.82
2023-04-13T07:47:40.062Z,8.95
2023-04-13T07:50:12.064Z,9.06
2023-04-13T07:52:41.645Z,9.13
2023-04-13T07:55:12.256Z,9.16
2023-04-13T07:57:47.254Z,9.23
2023-04-13T08:00:20.460Z,9.25
2023-04-13T08:02:55.365Z,9.20
2023-04-13T08:05:26.435Z,9.30
2023-04-13T08:07:55.849Z,9.34
2023-04-13T08:10:26.545Z,9.35
2023-04-13T08:12:57.320Z,9.42
2023-04-13T08:15:26.555Z,9.32
2023-04-13T08:17:56.636Z,9.36
2023-04-13T08:20:26.116Z,9.38
2023-04-13T08:22:56.809Z,9.20
2023-04-13T08:25:28.533Z,9.24
2023-04-13T08:27:57.902Z,9.51
2023-04-13T08:30:27.273Z,9.90
2023-04-13T08:33:02.945Z,10.12
2023-04-13T08:35:32.545Z,10.15
2023-04-13T08:38:04.226Z,10.27
2023-04-13T08:40:39.601Z,10.33
2023-04-13T08:43:13.240Z,10.41
2023-04-13T08:45:43.591Z,10.44
2023-04-13T08:48:15.589Z,10.45
2023-04-13T08:50:47.609Z,10.44
2023-04-13T08:53:19.223Z,10.45
2023-04-13T08:55:52.414Z,10.51
2023-04-13T08:58:25.912Z,10.60
2023-04-13T09:00:56.573Z,10.63
2023-04-13T09:03:29.592Z,10.67
2023-04-13T09:06:05.761Z,10.69
2023-04-13T09:08:38.208Z,10.81
2023-04-13T09:11:10.791Z,10.93
2023-04-13T09:13:39.859Z,11.06
2023-04-13T09:16:09.843Z,10.80
2023-04-13T09:18:51.752Z,10.49
2023-04-13T09:21:21.557Z,10.40
2023-04-13T09:23:58.514Z,10.57
2023-04-13T09:26:29.383Z,10.57
2023-04-13T09:28:59.708Z,10.46
2023-04-13T09:31:29.173Z,10.32
2023-04-13T09:33:58.399Z,10.39
2023-04-13T09:36:29.669Z,10.59
2023-04-13T09:38:58.997Z,10.79
2023-04-13T09:41:35.039Z,10.92
2023-04-13T09:44:17.056Z,10.89
2023-04-13T09:46:47.012Z,11.06
2023-04-13T09:49:16.263Z,11.13
2023-04-13T09:51:45.549Z,11.26
2023-04-13T09:54:14.596Z,11.08
2023-04-13T09:56:48.308Z,11.08
2023-04-13T09:59:19.224Z,11.15
2023-04-13T10:01:49.859Z,10.91
2023-04-13T10:04:19.172Z,10.80
2023-04-13T10:06:48.421Z,10.76
2023-04-13T10:09:17.551Z,10.75
2023-04-13T10:11:53.090Z,10.76
2023-04-13T10:14:28.877Z,10.68
2023-04-13T10:17:30.712Z,10.43
2023-04-13T10:20:10.248Z,10.21
2023-04-13T10:22:40.852Z,10.30
2023-04-13T10:25:29.117Z,10.31
2023-04-13T10:28:02.461Z,10.27
2023-04-13T10:30:31.865Z,10.38
2023-04-13T10:33:06.658Z,10.46
2023-04-13T10:35:39.462Z,10.59
2023-04-13T10:38:10.828Z,11.06
2023-04-13T10:40:47.280Z,11.45
2023-04-13T10:43:31.236Z,11.85
2023-04-13T10:46:08.927Z,12.20
2023-04-13T10:48:38.503Z,12.55
2023-04-13T10:51:07.607Z,12.67
2023-04-13T10:53:37.782Z,12.68
2023-04-13T10:56:17.644Z,12.78
2023-04-13T10:58:54.184Z,12.99
2023-04-13T11:01:23.365Z,12.88
2023-04-13T11:04:03.827Z,12.84
2023-04-13T11:06:38.476Z,12.94
2023-04-13T11:09:12.547Z,13.10
2023-04-13T11:11:43.708Z,13.12
2023-04-13T11:14:22.889Z,12.93
2023-04-13T11:19:27.090Z,13.15
2023-04-13T11:21:58.058Z,13.50
2023-04-13T11:24:34.313Z,13.66
2023-04-13T11:27:03.836Z,13.62
2023-04-13T11:29:34.338Z,13.42
2023-04-13T11:32:05.964Z,13.17
2023-04-13T11:34:35.209Z,13.04
2023-04-13T11:37:05.758Z,12.85
2023-04-13T11:39:38.470Z,12.78
2023-04-13T11:42:08.394Z,12.66
2023-04-13T11:44:39.741Z,12.46
2023-04-13T11:47:13.195Z,12.27
2023-04-13T11:49:47.907Z,11.98
2023-04-13T11:52:17.442Z,11.64
2023-04-13T11:54:48.854Z,11.42
2023-04-13T11:57:18.388Z,11.21
2023-04-13T11:59:49.253Z,11.08
2023-04-13T12:04:57.188Z,11.07
2023-04-13T12:07:26.990Z,11.10
2023-04-13T12:10:00.858Z,11.03
2023-04-13T12:15:25.041Z,10.67
2023-04-13T12:18:02.648Z,10.47
2023-04-13T12:20:44.450Z,10.33
2023-04-13T12:23:23.563Z,10.20
2023-04-13T12:25:58.376Z,10.13
2023-04-13T12:28:34.141Z,10.07
2023-04-13T12:31:07.530Z,10.02
2023-04-13T12:33:37.026Z,9.98
2023-04-13T12:36:07.059Z,9.88
2023-04-13T12:38:36.117Z,9.86
2023-04-13T12:41:08.662Z,10.09
2023-04-13T12:43:37.782Z,10.27
2023-04-13T12:46:08.254Z,10.26
2023-04-13T12:48:37.416Z,10.16
2023-04-13T12:51:07.192Z,9.53
2023-04-13T12:53:36.382Z,9.68
2023-04-13T12:56:05.833Z,9.88
2023-04-13T12:58:35.544Z,9.99
2023-04-13T13:01:04.899Z,10.06
2023-04-13T13:03:37.009Z,10.08
2023-04-13T13:06:09.288Z,9.64
2023-04-13T13:08:40.374Z,9.40
2023-04-13T13:11:09.851Z,9.47
2023-04-13T13:13:38.867Z,9.73
2023-04-13T13:16:08.633Z,10.02
2023-04-13T13:18:49.820Z,10.20
2023-04-13T13:21:21.269Z,10.57
2023-04-13T13:23:50.583Z,10.95
2023-04-13T13:28:52.161Z,11.43
2023-04-13T13:31:21.691Z,11.23
2023-04-13T13:33:52.194Z,11.24
2023-04-13T13:36:22.467Z,11.40
2023-04-13T13:38:51.557Z,11.55
2023-04-13T13:41:21.151Z,11.60
2023-04-13T13:43:50.131Z,11.60
2023-04-13T13:46:19.217Z,11.38
2023-04-13T13:48:49.571Z,11.06
2023-04-13T13:51:52.432Z,10.83
2023-04-13T13:54:25.498Z,10.76
2023-04-13T13:56:54.618Z,10.76
2023-04-13T13:59:23.662Z,10.72
2023-04-13T14:01:52.910Z,10.68
2023-04-13T14:04:22.168Z,10.62
2023-04-13T14:06:52.677Z,10.66
2023-04-13T14:09:21.875Z,10.68
2023-04-13T14:11:51.433Z,10.73
2023-04-13T14:14:22.547Z,10.82
2023-04-13T14:16:51.933Z,10.81
2023-04-13T14:19:22.170Z,10.73
2023-04-13T14:21:56.587Z,10.79
2023-04-13T14:24:26.546Z,10.89
2023-04-13T14:26:55.742Z,10.93
2023-04-13T14:29:24.815Z,10.99
2023-04-13T14:31:53.882Z,11.09
2023-04-13T14:34:22.901Z,11.26
2023-04-13T14:36:54.412Z,11.57
2023-04-13T14:39:25.997Z,11.71
2023-04-13T14:41:56.539Z,11.39
2023-04-13T14:44:26.485Z,11.25
2023-04-13T14:46:55.990Z,11.23
2023-04-13T14:49:25.152Z,11.42
2023-04-13T14:51:56.118Z,11.29
2023-04-13T14:54:25.224Z,11.09
2023-04-13T14:56:54.244Z,11.04
2023-04-13T14:59:23.281Z,10.93
2023-04-13T15:01:52.453Z,10.76
2023-04-13T15:04:21.691Z,10.52
2023-04-13T15:06:54.373Z,10.26
2023-04-13T15:09:25.687Z,10.13
2023-04-13T15:11:54.865Z,9.86
2023-04-13T15:14:24.010Z,9.81
2023-04-13T15:16:53.260Z,9.59
2023-04-13T15:19:22.520Z,9.60
2023-04-13T15:21:51.679Z,9.59
2023-04-13T15:24:20.824Z,9.56
2023-04-13T15:26:51.459Z,9.55
2023-04-13T15:29:20.806Z,9.46
2023-04-13T15:31:51.889Z,9.42
2023-04-13T15:34:20.927Z,9.40
2023-04-13T15:36:49.958Z,9.31
2023-04-13T15:39:19.169Z,9.24
2023-04-13T15:41:48.214Z,9.17
2023-04-13T15:44:18.879Z,9.08
2023-04-13T15:46:48.571Z,9.03
2023-04-13T15:49:17.572Z,9.03
2023-04-13T15:51:46.928Z,8.96
2023-04-13T15:54:16.133Z,8.95
2023-04-13T15:56:45.590Z,9.01
2023-04-13T15:59:14.758Z,8.98
2023-04-13T16:01:50.211Z,8.91
2023-04-13T16:04:19.562Z,8.77
2023-04-13T16:06:55.785Z,8.73
2023-04-13T16:09:34.999Z,8.77
2023-04-13T16:12:07.741Z,8.82
2023-04-13T16:14:42.260Z,8.79
2023-04-13T16:17:15.108Z,8.80
2023-04-13T16:19:46.874Z,8.88
2023-04-13T16:22:17.206Z,8.86
2023-04-13T16:24:46.322Z,8.70
2023-04-13T16:27:15.540Z,8.65
2023-04-13T16:29:45.302Z,8.58
2023-04-13T16:32:15.695Z,8.53
2023-04-13T16:34:44.894Z,8.46
2023-04-13T16:37:14.224Z,8.42
2023-04-13T16:39:44.410Z,8.35
2023-04-13T16:42:13.541Z,8.36
2023-04-13T16:44:42.803Z,8.29
2023-04-13T16:47:12.104Z,8.24
2023-04-13T16:49:42.572Z,8.21
2023-04-13T16:52:11.725Z,8.19
2023-04-13T16:54:44.650Z,8.26
2023-04-13T16:57:13.762Z,8.24
2023-04-13T16:59:42.836Z,8.24
2023-04-13T17:02:28.111Z,8.21
2023-04-13T17:05:01.483Z,8.17
2023-04-13T17:07:31.114Z,8.14
2023-04-13T17:10:00.238Z,8.09
2023-04-13T17:12:29.294Z,8.00
2023-04-13T17:14:58.846Z,7.93
2023-04-13T17:17:28.014Z,7.96
2023-04-13T17:19:57.322Z,7.95
2023-04-13T17:22:29.560Z,7.94
2023-04-13T17:24:59.073Z,7.97
2023-04-13T17:27:28.257Z,7.92
2023-04-13T17:30:00.450Z,7.86
2023-04-13T17:32:29.676Z,7.82
2023-04-13T17:35:02.553Z,7.71
2023-04-13T17:37:33.492Z,7.74
2023-04-13T17:40:02.617Z,7.74
2023-04-13T17:42:31.711Z,7.89
2023-04-13T17:45:01.796Z,7.75
2023-04-13T17:47:31.017Z,7.64
2023-04-13T17:50:00.250Z,7.58
2023-04-13T17:52:29.330Z,7.58
2023-04-13T17:54:59.855Z,7.51
2023-04-13T17:57:28.897Z,7.46
2023-04-13T17:59:58.148Z,7.50
2023-04-13T18:02:27.530Z,7.45
2023-04-13T18:04:58.651Z,7.44
2023-04-13T18:07:27.936Z,7.37
2023-04-13T18:09:57.231Z,7.40
2023-04-13T18:12:27.800Z,7.39
2023-04-13T18:14:56.930Z,7.27
2023-04-13T18:17:29.414Z,7.30
2023-04-13T18:19:58.780Z,7.22
2023-04-13T18:22:27.948Z,7.26
2023-04-13T18:24:57.137Z,7.27
2023-04-13T18:27:27.921Z,7.25
2023-04-13T18:29:59.727Z,7.24
2023-04-13T18:32:28.865Z,7.22
2023-04-13T18:34:57.942Z,7.19
2023-04-13T18:37:27.146Z,7.15
2023-04-13T18:39:57.758Z,7.14
2023-04-13T18:42:28.412Z,7.23
2023-04-13T18:44:57.587Z,7.20
2023-04-13T18:47:27.204Z,7.20
2023-04-13T18:49:56.908Z,7.23
2023-04-13T18:52:26.132Z,7.21
2023-04-13T18:54:55.384Z,7.18
2023-04-13T18:57:24.515Z,7.15
2023-04-13T18:59:56.926Z,7.16
2023-04-13T19:02:27.633Z,7.15
2023-04-13T19:04:56.950Z,7.12
2023-04-13T19:07:27.823Z,7.09
2023-04-13T19:09:56.945Z,7.07
2023-04-13T19:12:25.975Z,7.10
2023-04-13T19:14:56.523Z,6.99
2023-04-13T19:17:26.722Z,7.05
2023-04-13T19:19:56.075Z,6.91
2023-04-13T19:22:26.702Z,6.95
2023-04-13T19:24:55.771Z,6.98
2023-04-13T19:27:27.168Z,6.93
2023-04-13T19:29:58.115Z,6.89
2023-04-13T19:32:29.045Z,6.81
2023-04-13T19:34:58.160Z,6.83
2023-04-13T19:37:27.308Z,6.80
2023-04-13T19:39:56.662Z,6.77
2023-04-13T19:42:26.450Z,6.75
2023-04-13T19:44:57.250Z,6.74
2023-04-13T19:47:26.486Z,6.77
2023-04-13T19:49:55.861Z,6.88
2023-04-13T19:52:25.324Z,6.84
2023-04-13T19:54:54.468Z,6.85
2023-04-13T19:57:23.581Z,6.85
2023-04-13T19:59:52.986Z,6.89
2023-04-13T20:02:24.026Z,6.77
2023-04-13T20:04:54.072Z,6.77
2023-04-13T20:07:26.084Z,6.75
2023-04-13T20:09:55.373Z,6.75
2023-04-13T20:12:25.213Z,6.47
2023-04-13T20:14:54.503Z,6.58
2023-04-13T20:17:25.181Z,6.68
2023-04-13T20:19:55.477Z,6.59
2023-04-13T20:22:26.332Z,6.57
2023-04-13T20:24:56.215Z,6.48
2023-04-13T20:27:25.745Z,6.44
2023-04-13T20:29:54.786Z,6.40
2023-04-13T20:32:25.330Z,6.40
2023-04-13T20:34:57.573Z,6.41
2023-04-13T20:37:26.764Z,6.40
2023-04-13T20:39:57.728Z,6.25
2023-04-13T20:42:27.342Z,6.23
2023-04-13T20:44:57.660Z,6.29
2023-04-13T20:47:31.454Z,6.17
2023-04-13T20:50:02.469Z,6.17
2023-04-13T20:52:33.948Z,6.16
2023-04-13T20:55:03.286Z,6.11
2023-04-13T20:57:33.004Z,6.09
2023-04-13T21:00:09.349Z,6.08
2023-04-13T21:02:42.084Z,6.09
2023-04-13T21:05:12.553Z,6.11
2023-04-13T21:07:42.560Z,5.98
2023-04-13T21:10:12.740Z,5.95
2023-04-13T21:12:42.158Z,5.92
2023-04-13T21:15:12.469Z,6.12
2023-04-13T21:17:43.014Z,5.93
2023-04-13T21:20:14.435Z,5.84
2023-04-13T21:22:43.641Z,6.00
2023-04-13T21:25:15.989Z,5.91
2023-04-13T21:27:45.087Z,5.92
2023-04-13T21:30:17.769Z,5.88
2023-04-13T21:32:50.886Z,5.81
2023-04-13T21:35:20.380Z,5.90
2023-04-13T21:37:49.503Z,5.79
2023-04-13T21:40:18.793Z,5.83
2023-04-13T21:42:47.817Z,5.79
2023-04-13T21:45:16.879Z,5.88
2023-04-13T21:47:47.737Z,5.76
2023-04-13T21:50:16.918Z,5.73
2023-04-13T21:52:46.034Z,5.81
2023-04-13T21:55:18.114Z,5.82
2023-04-13T21:57:47.588Z,5.68
2023-04-13T22:00:18.039Z,5.68
2023-04-13T22:02:49.319Z,5.65
2023-04-13T22:05:18.776Z,5.74
2023-04-13T22:07:47.920Z,5.66
2023-04-13T22:10:17.061Z,5.71
2023-04-13T22:12:46.733Z,5.66
2023-04-13T22:15:15.942Z,5.62
2023-04-13T22:17:45.026Z,5.76
2023-04-13T22:20:15.616Z,5.71
2023-04-13T22:22:44.689Z,5.59
2023-04-13T22:25:13.702Z,5.61
2023-04-13T22:27:42.755Z,5.61
2023-04-13T22:30:12.777Z,5.89
2023-04-13T22:32:42.123Z,6.05
2023-04-13T22:35:12.265Z,5.93
2023-04-13T22:37:42.734Z,5.79
2023-04-13T22:40:12.784Z,5.78
2023-04-13T22:42:41.938Z,5.88
2023-04-13T22:45:12.228Z,6.09
2023-04-13T22:47:41.639Z,6.07
2023-04-13T22:50:11.601Z,5.80
2023-04-13T22:52:41.974Z,5.86
2023-04-13T22:55:11.568Z,5.91
2023-04-13T22:57:40.636Z,6.00
2023-04-13T23:00:12.004Z,5.98
2023-04-13T23:02:41.369Z,5.87
2023-04-13T23:05:10.962Z,5.90
2023-04-13T23:07:39.935Z,5.71
2023-04-13T23:10:11.016Z,5.75
2023-04-13T23:12:40.067Z,5.73
2023-04-13T23:15:10.521Z,5.73
2023-04-13T23:17:39.621Z,5.65
2023-04-13T23:20:10.619Z,5.64
2023-04-13T23:22:39.942Z,5.55
2023-04-13T23:25:10.961Z,5.53
2023-04-13T23:27:40.046Z,5.57
2023-04-13T23:30:10.384Z,5.57
2023-04-13T23:32:39.658Z,5.47
2023-04-13T23:35:10.350Z,5.54
2023-04-13T23:37:42.184Z,5.67
2023-04-13T23:40:13.548Z,5.51
2023-04-13T23:42:43.962Z,5.43
2023-04-13T23:45:13.147Z,5.53
2023-04-13T23:47:42.318Z,5.55
2023-04-13T23:50:12.661Z,5.58
2023-04-13T23:52:41.774Z,5.52
2023-04-13T23:55:12.434Z,5.48
2023-04-13T23:57:41.489Z,5.50
